createdAt,value
2022-10-28T00:00:56.290Z,65387.91
2022-10-28T00:03:23.792Z,65387.91
2022-10-28T00:05:51.357Z,65387.91
2022-10-28T00:08:18.818Z,65387.91
2022-10-28T00:10:48.014Z,65387.91
2022-10-28T00:13:16.790Z,65387.91
2022-10-28T00:15:44.274Z,65387.91
2022-10-28T00:18:12.213Z,65387.91
2022-10-28T00:20:39.683Z,65387.91
2022-10-28T00:23:08.816Z,65387.91
2022-10-28T00:25:36.328Z,65387.91
2022-10-28T00:28:03.839Z,65387.91
2022-10-28T00:30:32.690Z,65387.91
2022-10-28T00:33:00.120Z,65387.91
2022-10-28T00:35:27.598Z,65387.91
2022-10-28T00:37:57.878Z,65387.91
2022-10-28T00:40:26.516Z,65387.91
2022-10-28T00:42:54.356Z,65387.91
2022-10-28T00:45:22.171Z,65387.91
2022-10-28T00:47:55.968Z,65387.91
2022-10-28T00:50:44.326Z,65387.91
2022-10-28T00:53:16.430Z,65387.91
2022-10-28T00:55:46.267Z,65387.91
2022-10-28T00:58:16.200Z,65387.91
2022-10-28T01:00:43.989Z,65387.91
2022-10-28T01:03:13.063Z,65387.91
2022-10-28T01:05:43.326Z,65387.91
2022-10-28T01:08:11.662Z,65387.91
2022-10-28T01:11:03.117Z,65387.91
2022-10-28T01:13:40.033Z,65387.91
2022-10-28T01:16:20.618Z,65387.91
2022-10-28T01:19:01.708Z,65387.91
2022-10-28T01:21:53.015Z,65387.91
2022-10-28T01:24:46.421Z,65387.91
2022-10-28T01:27:29.533Z,65387.91
2022-10-28T01:30:07.138Z,65387.91
2022-10-28T01:32:47.621Z,65387.91
2022-10-28T01:35:23.416Z,65387.91
2022-10-28T01:38:03.104Z,65387.91
2022-10-28T01:40:34.743Z,65387.91
2022-10-28T01:43:10.375Z,65387.91
2022-10-28T01:45:44.603Z,65387.91
2022-10-28T01:48:18.634Z,65387.91
2022-10-28T01:50:49.667Z,65387.91
2022-10-28T01:53:20.960Z,65387.91
2022-10-28T01:55:51.648Z,65387.91
2022-10-28T01:58:24.513Z,65387.91
2022-10-28T02:00:52.919Z,65387.91
2022-10-28T02:03:21.709Z,65387.91
2022-10-28T02:05:51.347Z,65387.91
2022-10-28T02:08:33.875Z,65387.91
2022-10-28T02:11:19.156Z,65387.91
2022-10-28T02:13:56.134Z,65387.91
2022-10-28T02:16:31.450Z,65387.91
2022-10-28T02:19:09.800Z,65387.91
2022-10-28T02:21:51.815Z,65387.91
2022-10-28T02:24:24.719Z,65387.91
2022-10-28T02:26:57.997Z,65387.91
2022-10-28T02:29:30.816Z,65387.91
2022-10-28T02:32:03.470Z,65387.91
2022-10-28T02:34:36.824Z,65387.91
2022-10-28T02:37:09.439Z,65387.91
2022-10-28T02:39:41.141Z,65387.91
2022-10-28T02:42:14.079Z,65387.91
2022-10-28T02:44:46.224Z,65387.91
2022-10-28T02:47:19.712Z,65387.91
2022-10-28T02:49:53.119Z,65387.91
2022-10-28T02:52:23.681Z,65387.91
2022-10-28T02:54:55.139Z,65387.91
2022-10-28T02:57:25.565Z,65387.91
2022-10-28T02:59:54.914Z,65387.91
2022-10-28T03:02:22.644Z,65387.91
2022-10-28T03:04:52.327Z,65387.91
2022-10-28T03:07:20.383Z,65387.91
2022-10-28T03:09:47.866Z,65387.91
2022-10-28T03:12:15.476Z,65387.91
2022-10-28T03:14:43.300Z,65387.91
2022-10-28T03:17:10.739Z,65387.91
2022-10-28T03:19:38.202Z,65387.91
2022-10-28T03:22:07.083Z,65387.91
2022-10-28T03:24:34.537Z,65387.91
2022-10-28T03:27:02.004Z,65387.91
2022-10-28T03:29:29.447Z,65387.91
2022-10-28T03:31:56.899Z,65387.91
2022-10-28T03:34:24.419Z,65387.91
2022-10-28T03:36:51.876Z,65387.91
2022-10-28T03:39:20.671Z,65387.91
2022-10-28T03:41:48.160Z,65387.91
2022-10-28T03:44:15.803Z,65387.91
2022-10-28T03:46:43.236Z,65387.91
2022-10-28T03:49:10.700Z,65387.91
2022-10-28T03:51:38.311Z,65387.91
2022-10-28T03:54:05.779Z,65387.91
2022-10-28T03:56:34.553Z,65387.91
2022-10-28T03:59:01.990Z,65387.91
2022-10-28T04:01:29.579Z,65387.91
2022-10-28T04:03:57.109Z,65387.91
2022-10-28T04:06:24.607Z,65387.91
2022-10-28T04:08:52.233Z,65387.91
2022-10-28T04:11:19.679Z,65387.91
2022-10-28T04:13:48.742Z,65387.91
2022-10-28T04:16:16.182Z,65387.91
2022-10-28T04:18:43.717Z,65387.91
2022-10-28T04:21:11.194Z,65387.91
2022-10-28T04:23:38.624Z,65387.91
2022-10-28T04:26:06.755Z,65387.91
2022-10-28T04:28:35.460Z,65387.91
2022-10-28T04:31:04.473Z,65387.91
2022-10-28T04:33:31.963Z,65387.91
2022-10-28T04:36:00.587Z,65387.91
2022-10-28T04:38:28.246Z,65387.91
2022-10-28T04:40:55.704Z,65387.91
2022-10-28T04:43:23.161Z,65387.91
2022-10-28T04:45:50.641Z,65387.91
2022-10-28T04:48:19.450Z,65387.91
2022-10-28T04:50:46.938Z,65387.91
2022-10-28T04:53:14.569Z,65387.91
2022-10-28T04:55:42.050Z,65387.91
2022-10-28T04:58:10.839Z,65387.91
2022-10-28T05:00:40.069Z,65387.91
2022-10-28T05:03:09.161Z,65387.91
2022-10-28T05:05:37.971Z,65387.91
2022-10-28T05:08:08.659Z,65387.91
2022-10-28T05:10:36.364Z,65387.91
2022-10-28T05:13:03.837Z,65387.91
2022-10-28T05:15:33.204Z,65387.91
2022-10-28T05:18:01.705Z,65387.91
2022-10-28T05:20:29.184Z,65387.91
2022-10-28T05:22:58.312Z,65387.91
2022-10-28T05:25:25.904Z,65387.91
2022-10-28T05:27:53.761Z,65387.91
2022-10-28T05:30:22.082Z,65387.91
2022-10-28T05:32:51.662Z,65387.91
2022-10-28T05:35:22.148Z,65387.91
2022-10-28T05:37:49.767Z,65387.91
2022-10-28T05:40:18.708Z,65387.91
2022-10-28T05:42:46.257Z,65387.91
2022-10-28T05:45:13.796Z,65387.91
2022-10-28T05:47:44.941Z,65387.91
2022-10-28T05:50:13.009Z,65387.91
2022-10-28T05:52:42.947Z,65387.91
2022-10-28T05:55:11.112Z,65387.91
2022-10-28T05:57:43.106Z,65387.91
2022-10-28T06:00:13.184Z,65387.91
2022-10-28T06:02:40.780Z,65387.91
2022-10-28T06:05:09.225Z,65387.91
2022-10-28T06:07:37.906Z,65387.91
2022-10-28T06:10:07.678Z,65387.91
2022-10-28T06:15:03.301Z,65387.91
2022-10-28T06:17:31.072Z,65387.91
2022-10-28T06:19:58.782Z,65387.91
2022-10-28T06:22:26.949Z,65387.91
2022-10-28T06:24:54.782Z,65387.91
2022-10-28T06:27:24.002Z,65387.91
2022-10-28T06:29:51.853Z,65387.91
2022-10-28T06:32:20.693Z,65387.91
2022-10-28T06:34:48.341Z,65387.91
2022-10-28T06:37:15.869Z,65387.91
2022-10-28T06:39:49.823Z,65387.91
2022-10-28T06:42:17.286Z,65387.91
2022-10-28T06:44:45.073Z,65387.91
2022-10-28T06:47:14.251Z,65387.91
2022-10-28T06:49:43.110Z,65387.91
2022-10-28T06:52:10.575Z,65387.91
2022-10-28T06:54:38.023Z,65387.91
2022-10-28T06:57:05.948Z,65387.91
2022-10-28T06:59:33.432Z,65387.91
2022-10-28T07:02:01.038Z,65387.91
2022-10-28T07:04:28.765Z,65387.91
2022-10-28T07:06:58.580Z,65387.91
2022-10-28T07:09:26.125Z,65387.91
2022-10-28T07:11:55.185Z,65387.91
2022-10-28T07:14:23.254Z,65387.91
2022-10-28T07:16:50.747Z,65387.91
2022-10-28T07:19:22.497Z,65387.91
2022-10-28T07:21:50.560Z,65387.91
2022-10-28T07:24:19.840Z,65387.91
2022-10-28T07:26:51.926Z,65387.91
2022-10-28T07:29:21.745Z,65387.91
2022-10-28T07:31:49.227Z,65387.91
2022-10-28T07:34:16.784Z,65387.91
2022-10-28T07:36:44.398Z,65387.91
2022-10-28T07:39:12.176Z,65387.91
2022-10-28T07:41:41.140Z,65387.91
2022-10-28T07:44:08.970Z,65387.91
2022-10-28T07:46:37.165Z,65387.91
2022-10-28T07:49:04.774Z,65387.91
2022-10-28T07:51:32.561Z,65387.91
2022-10-28T07:54:00.908Z,65387.91
2022-10-28T07:56:28.461Z,65387.91
2022-10-28T07:58:59.282Z,65387.91
2022-10-28T08:01:26.846Z,65387.91
2022-10-28T08:03:54.400Z,65387.91
2022-10-28T08:06:22.007Z,65387.91
2022-10-28T08:08:53.887Z,65387.91
2022-10-28T08:11:23.689Z,65387.91
2022-10-28T08:13:51.815Z,65387.91
2022-10-28T08:16:21.136Z,65387.91
2022-10-28T08:18:48.701Z,65387.91
2022-10-28T08:21:16.900Z,65387.91
2022-10-28T08:23:46.469Z,65387.91
2022-10-28T08:26:14.899Z,65387.91
2022-10-28T08:28:42.463Z,65387.91
2022-10-28T08:31:12.247Z,65387.91
2022-10-28T08:33:44.261Z,65387.91
2022-10-28T08:36:13.440Z,65387.91
2022-10-28T08:38:45.336Z,65387.91
2022-10-28T08:41:35.901Z,65387.91
2022-10-28T08:44:27.810Z,65387.91
2022-10-28T08:47:08.732Z,65387.91
2022-10-28T08:49:43.463Z,65387.91
2022-10-28T08:52:25.750Z,65387.91
2022-10-28T08:54:56.627Z,65387.91
2022-10-28T08:57:34.779Z,65387.91
2022-10-28T09:00:06.695Z,65387.91
2022-10-28T09:02:53.627Z,65387.91
2022-10-28T09:05:25.203Z,65387.91
2022-10-28T09:07:54.375Z,65387.91
2022-10-28T09:10:46.976Z,65387.91
2022-10-28T09:13:22.065Z,65387.91
2022-10-28T09:15:58.352Z,65387.91
2022-10-28T09:18:37.251Z,65387.91
2022-10-28T09:21:13.891Z,65387.91
2022-10-28T09:23:49.924Z,65387.91
2022-10-28T09:26:25.130Z,65387.91
2022-10-28T09:29:04.880Z,65387.91
2022-10-28T09:31:37.091Z,65387.91
2022-10-28T09:34:17.554Z,65387.91
2022-10-28T09:36:50.983Z,65387.91
2022-10-28T09:39:25.340Z,65387.91
2022-10-28T09:41:57.982Z,65387.91
2022-10-28T09:44:42.573Z,65387.91
2022-10-28T09:47:17.420Z,65387.91
2022-10-28T09:49:48.074Z,65387.91
2022-10-28T09:52:22.133Z,65387.91
2022-10-28T09:54:52.568Z,65387.91
2022-10-28T09:57:20.814Z,65387.91
2022-10-28T09:59:48.552Z,65387.91
2022-10-28T10:02:27.791Z,65387.91
2022-10-28T10:04:56.715Z,65387.91
2022-10-28T10:07:34.074Z,65387.91
2022-10-28T10:10:07.028Z,65387.91
2022-10-28T10:12:35.016Z,65387.91
2022-10-28T10:15:05.994Z,65387.91
2022-10-28T10:17:38.329Z,65387.91
2022-10-28T10:20:08.471Z,65387.91
2022-10-28T10:22:39.371Z,65387.91
2022-10-28T10:25:25.070Z,65387.91
2022-10-28T10:27:54.395Z,65387.91
2022-10-28T10:30:26.744Z,65387.91
2022-10-28T10:32:54.307Z,65387.91
2022-10-28T10:35:26.063Z,65387.91
2022-10-28T10:37:57.537Z,65387.91
2022-10-28T10:40:27.253Z,65387.91
2022-10-28T10:43:12.802Z,65387.91
2022-10-28T10:45:41.063Z,65387.91
2022-10-28T10:48:14.376Z,65387.91
2022-10-28T10:51:42.319Z,65387.91
2022-10-28T10:55:22.118Z,65387.91
2022-10-28T10:58:51.549Z,65387.91
2022-10-28T11:02:22.824Z,65387.91
2022-10-28T11:06:05.462Z,65387.91
2022-10-28T11:09:42.165Z,65387.91
2022-10-28T11:13:25.886Z,65387.91
2022-10-28T11:16:59.480Z,65387.91
2022-10-28T11:20:31.032Z,65387.91
2022-10-28T11:24:15.336Z,65387.91
2022-10-28T11:27:57.596Z,65387.91
2022-10-28T11:31:50.390Z,65387.91
2022-10-28T11:35:35.390Z,65387.91
2022-10-28T11:39:15.318Z,65387.91
2022-10-28T11:42:55.872Z,65387.91
2022-10-28T11:46:35.825Z,65387.91
2022-10-28T11:50:23.605Z,65387.91
2022-10-28T11:54:02.452Z,65387.91
2022-10-28T11:57:40.460Z,65387.91
2022-10-28T12:01:30.742Z,65387.91
2022-10-28T12:05:14.722Z,65387.91
2022-10-28T12:08:56.704Z,65387.91
2022-10-28T12:12:36.350Z,65387.91
2022-10-28T12:16:18.727Z,65387.91
2022-10-28T12:19:55.213Z,65387.91
2022-10-28T12:23:24.580Z,65387.91
2022-10-28T12:26:54.403Z,65387.91
2022-10-28T12:30:28.184Z,65387.91
2022-10-28T12:33:58.078Z,65387.91
2022-10-28T12:37:32.611Z,65387.91
2022-10-28T12:41:04.818Z,65387.91
2022-10-28T12:44:34.002Z,65387.91
2022-10-28T12:48:10.033Z,65387.91
2022-10-28T12:51:40.301Z,65387.91
2022-10-28T12:55:26.936Z,65387.91
2022-10-28T12:58:59.632Z,65387.91
2022-10-28T13:02:31.633Z,65387.91
2022-10-28T13:06:05.236Z,65387.91
2022-10-28T13:09:51.826Z,65387.91
2022-10-28T13:13:43.594Z,65387.91
2022-10-28T13:17:30.945Z,65387.91
2022-10-28T13:21:19.866Z,65387.91
2022-10-28T13:24:55.363Z,65387.91
2022-10-28T13:28:23.782Z,65387.91
2022-10-28T13:31:54.152Z,65387.91
2022-10-28T13:35:24.761Z,65387.91
2022-10-28T13:38:53.833Z,65387.91
2022-10-28T13:42:32.075Z,65387.91
2022-10-28T13:45:58.942Z,65387.91
2022-10-28T13:48:45.192Z,100143.81
2022-10-28T13:51:33.547Z,100134.81
2022-10-28T13:54:01.420Z,100146.91
2022-10-28T13:56:48.092Z,100162.59
2022-10-28T13:59:27.991Z,100171.09
2022-10-28T14:02:33.171Z,100150.13
2022-10-28T14:04:59.714Z,125786.13
2022-10-28T14:07:31.580Z,100151.03
2022-10-28T14:10:19.119Z,100157.56
2022-10-28T14:12:51.032Z,100183.25
2022-10-28T14:15:25.154Z,100171.66
2022-10-28T14:18:04.962Z,100157.56
2022-10-28T14:20:54.830Z,100149.13
2022-10-28T14:24:08.149Z,100134.16
2022-10-28T14:27:09.721Z,100126.44
2022-10-28T14:29:44.580Z,100125.25
2022-10-28T14:32:42.604Z,100125.25
2022-10-28T14:35:21.750Z,100122.69
2022-10-28T14:38:21.445Z,100108.81
2022-10-28T14:40:52.064Z,100098.47
2022-10-28T14:43:35.505Z,100084.13
2022-10-28T14:46:18.479Z,100084.13
2022-10-28T14:48:48.257Z,65387.91
2022-10-28T14:51:18.505Z,65387.91
2022-10-28T14:53:47.336Z,65387.91
2022-10-28T14:58:59.174Z,65387.91
2022-10-28T15:01:29.400Z,65387.91
2022-10-28T15:04:02.104Z,65387.91
2022-10-28T15:06:36.185Z,65387.91
2022-10-28T15:09:18.186Z,65387.91
2022-10-28T15:11:50.561Z,65387.91
2022-10-28T15:14:27.375Z,65387.91
2022-10-28T15:16:55.205Z,65387.91
2022-10-28T15:19:25.272Z,65387.91
2022-10-28T15:22:13.777Z,65387.91
2022-10-28T15:24:44.713Z,65387.91
2022-10-28T15:27:16.637Z,65387.91
2022-10-28T15:29:44.419Z,65387.91
2022-10-28T15:32:26.157Z,65387.91
2022-10-28T15:34:53.615Z,65387.91
2022-10-28T15:37:23.328Z,65387.91
2022-10-28T15:39:53.194Z,65387.91
2022-10-28T15:42:38.578Z,65387.91
2022-10-28T15:45:13.099Z,65387.91
2022-10-28T15:47:40.598Z,65387.91
2022-10-28T15:50:26.426Z,65387.91
2022-10-28T15:52:57.204Z,65387.91
2022-10-28T15:55:41.627Z,65387.91
2022-10-28T15:58:33.958Z,65387.91
2022-10-28T16:01:01.479Z,65387.91
2022-10-28T16:03:42.548Z,65387.91
2022-10-28T16:06:23.952Z,65387.91
2022-10-28T16:09:01.530Z,65387.91
2022-10-28T16:11:30.440Z,65387.91
2022-10-28T16:14:07.319Z,65387.91
2022-10-28T16:16:34.847Z,65387.91
2022-10-28T16:19:09.062Z,65387.91
2022-10-28T16:21:38.986Z,65387.91
2022-10-28T16:24:07.006Z,65387.91
2022-10-28T16:26:34.463Z,65387.91
2022-10-28T16:29:03.258Z,65387.91
2022-10-28T16:31:31.753Z,65387.91
2022-10-28T16:34:00.016Z,65387.91
2022-10-28T16:36:28.732Z,65387.91
2022-10-28T16:38:56.231Z,65387.91
2022-10-28T16:41:25.127Z,65387.91
2022-10-28T16:43:53.192Z,65387.91
2022-10-28T16:46:22.289Z,65387.91
2022-10-28T16:48:49.722Z,65387.91
2022-10-28T16:51:18.418Z,65387.91
2022-10-28T16:53:49.506Z,65387.91
2022-10-28T16:56:18.031Z,65387.91
2022-10-28T16:58:47.558Z,65387.91
2022-10-28T17:01:19.981Z,65387.91
2022-10-28T17:03:48.968Z,65387.91
2022-10-28T17:06:17.959Z,65387.91
2022-10-28T17:11:33.212Z,65387.91
2022-10-28T17:14:00.753Z,65387.91
2022-10-28T17:16:28.262Z,65387.91
2022-10-28T17:18:57.035Z,65387.91
2022-10-28T17:21:24.639Z,65387.91
2022-10-28T17:23:52.158Z,65387.91
2022-10-28T17:26:19.599Z,65387.91
2022-10-28T17:28:51.747Z,65387.91
2022-10-28T17:31:23.842Z,65387.91
2022-10-28T17:33:54.235Z,65387.91
2022-10-28T17:36:24.062Z,65387.91
2022-10-28T17:38:52.907Z,65387.91
2022-10-28T17:41:20.648Z,65387.91
2022-10-28T17:43:48.115Z,65387.91
2022-10-28T17:46:15.601Z,65387.91
2022-10-28T17:48:43.098Z,65387.91
2022-10-28T17:51:10.601Z,65387.91
2022-10-28T17:53:39.435Z,65387.91
2022-10-28T17:56:08.410Z,65387.91
2022-10-28T17:58:37.151Z,65387.91
2022-10-28T18:01:07.283Z,65387.91
2022-10-28T18:03:38.263Z,65387.91
2022-10-28T18:06:08.772Z,65387.91
2022-10-28T18:08:37.843Z,65387.91
2022-10-28T18:11:08.168Z,65387.91
2022-10-28T18:13:37.434Z,65387.91
2022-10-28T18:16:06.000Z,65387.91
2022-10-28T18:18:40.928Z,65387.91
2022-10-28T18:21:10.789Z,65387.91
2022-10-28T18:23:38.658Z,65387.91
2022-10-28T18:26:10.547Z,65387.91
2022-10-28T18:28:38.933Z,65387.91
2022-10-28T18:31:08.740Z,65387.91
2022-10-28T18:33:37.005Z,65387.91
2022-10-28T18:36:06.883Z,65387.91
2022-10-28T18:38:34.540Z,65387.91
2022-10-28T18:41:02.199Z,65387.91
2022-10-28T18:43:31.020Z,65387.91
2022-10-28T18:46:02.896Z,65387.91
2022-10-28T18:48:31.440Z,65387.91
2022-10-28T18:50:59.755Z,65387.91
2022-10-28T18:53:27.949Z,65387.91
2022-10-28T18:56:00.913Z,65387.91
2022-10-28T18:58:28.632Z,65387.91
2022-10-28T19:01:06.112Z,65387.91
2022-10-28T19:03:33.663Z,65387.91
2022-10-28T19:06:05.527Z,65387.91
2022-10-28T19:08:33.063Z,65387.91
2022-10-28T19:11:01.782Z,65387.91
2022-10-28T19:13:29.576Z,65387.91
2022-10-28T19:15:57.104Z,65387.91
2022-10-28T19:18:26.140Z,65387.91
2022-10-28T19:20:56.704Z,65387.91
2022-10-28T19:23:24.293Z,65387.91
2022-10-28T19:25:56.530Z,65387.91
2022-10-28T19:28:24.587Z,65387.91
2022-10-28T19:31:01.096Z,65387.91
2022-10-28T19:33:32.337Z,65387.91
2022-10-28T19:36:04.759Z,65387.91
2022-10-28T19:38:34.363Z,65387.91
2022-10-28T19:41:03.641Z,65387.91
2022-10-28T19:43:31.302Z,65387.91
2022-10-28T19:46:07.029Z,65387.91
2022-10-28T19:48:35.942Z,65387.91
2022-10-28T19:51:04.279Z,65387.91
2022-10-28T19:53:31.757Z,65387.91
2022-10-28T19:56:00.638Z,65387.91
2022-10-28T19:58:29.163Z,65387.91
2022-10-28T20:01:01.736Z,65387.91
2022-10-28T20:03:34.233Z,65387.91
2022-10-28T20:06:06.951Z,65387.91
2022-10-28T20:08:36.149Z,65387.91
2022-10-28T20:11:05.880Z,65387.91
2022-10-28T20:13:34.422Z,65387.91
2022-10-28T20:16:03.697Z,65387.91
2022-10-28T20:18:32.389Z,65387.91
2022-10-28T20:21:05.498Z,65387.91
2022-10-28T20:23:33.159Z,65387.91
2022-10-28T20:26:00.700Z,65387.91
2022-10-28T20:28:28.157Z,65387.91
2022-10-28T20:31:00.798Z,65387.91
2022-10-28T20:33:29.417Z,65387.91
2022-10-28T20:35:57.527Z,65387.91
2022-10-28T20:38:26.655Z,65387.91
2022-10-28T20:40:56.220Z,65387.91
2022-10-28T20:43:25.368Z,65387.91
2022-10-28T20:45:55.025Z,65387.91
2022-10-28T20:48:23.215Z,65387.91
2022-10-28T20:50:55.232Z,65387.91
2022-10-28T20:53:23.451Z,65387.91
2022-10-28T20:55:54.263Z,65387.91
2022-10-28T20:58:23.877Z,65387.91
2022-10-28T21:00:53.037Z,65387.91
2022-10-28T21:03:21.608Z,65387.91
2022-10-28T21:05:49.435Z,65387.91
2022-10-28T21:08:16.904Z,65387.91
2022-10-28T21:10:44.488Z,65387.91
2022-10-28T21:13:13.327Z,65387.91
2022-10-28T21:15:42.140Z,65387.91
2022-10-28T21:18:09.598Z,65387.91
2022-10-28T21:20:37.938Z,65387.91
2022-10-28T21:23:06.352Z,65387.91
2022-10-28T21:25:34.453Z,65387.91
2022-10-28T21:28:02.161Z,65387.91
2022-10-28T21:30:30.992Z,65387.91
2022-10-28T21:32:58.821Z,65387.91
2022-10-28T21:35:26.907Z,65387.91
2022-10-28T21:37:56.092Z,65387.91
2022-10-28T21:40:23.866Z,65387.91
2022-10-28T21:42:51.359Z,65387.91
2022-10-28T21:45:20.103Z,65387.91
2022-10-28T21:47:48.869Z,65387.91
2022-10-28T21:50:16.396Z,65387.91
2022-10-28T21:52:43.914Z,65387.91
2022-10-28T21:55:20.327Z,65387.91
2022-10-28T21:57:48.519Z,65387.91
2022-10-28T22:00:16.636Z,65387.91
2022-10-28T22:02:44.234Z,65387.91
2022-10-28T22:05:13.130Z,65387.91
2022-10-28T22:07:40.715Z,65387.91
2022-10-28T22:10:08.632Z,65387.91
2022-10-28T22:12:36.122Z,65387.91
2022-10-28T22:15:03.761Z,65387.91
2022-10-28T22:17:31.200Z,65387.91
2022-10-28T22:19:58.842Z,65387.91
2022-10-28T22:22:29.967Z,65387.91
2022-10-28T22:24:57.410Z,65387.91
2022-10-28T22:27:24.957Z,65387.91
2022-10-28T22:29:52.487Z,65387.91
2022-10-28T22:32:20.120Z,65387.91
2022-10-28T22:34:47.650Z,65387.91
2022-10-28T22:37:15.084Z,65387.91
2022-10-28T22:39:43.860Z,65387.91
2022-10-28T22:42:11.435Z,65387.91
2022-10-28T22:44:38.946Z,65387.91
2022-10-28T22:47:06.389Z,65387.91
2022-10-28T22:49:33.847Z,65387.91
2022-10-28T22:52:01.299Z,65387.91
2022-10-28T22:54:28.783Z,65387.91
2022-10-28T22:56:57.796Z,65387.91
2022-10-28T22:59:26.403Z,65387.91
2022-10-28T23:01:53.967Z,65387.91
2022-10-28T23:04:21.601Z,65387.91
2022-10-28T23:06:49.038Z,65387.91
2022-10-28T23:09:16.652Z,65387.91
2022-10-28T23:11:44.106Z,65387.91
2022-10-28T23:14:14.140Z,65387.91
2022-10-28T23:16:41.773Z,65387.91
2022-10-28T23:19:09.319Z,65387.91
2022-10-28T23:21:36.766Z,65387.91
2022-10-28T23:24:04.314Z,65387.91
2022-10-28T23:26:31.775Z,65387.91
2022-10-28T23:29:00.717Z,65387.91
2022-10-28T23:31:29.748Z,65387.91
2022-10-28T23:33:59.069Z,65387.91
2022-10-28T23:36:28.452Z,65387.91
2022-10-28T23:38:59.009Z,65387.91
2022-10-28T23:41:26.755Z,65387.91
2022-10-28T23:43:54.223Z,65387.91
2022-10-28T23:46:21.742Z,65387.91
2022-10-28T23:48:50.543Z,65387.91
2022-10-28T23:51:19.212Z,65387.91
2022-10-28T23:53:46.750Z,65387.91
2022-10-28T23:56:14.179Z,65387.91
2022-10-28T23:58:41.623Z,65387.91
